sensor_id;sensor_type;location;lat;lon;timestamp;temperature;humidity
7218;DHT22;3650;53.580;10.094;2022-08-21T00:01:51;17.60;78.40
7218;DHT22;3650;53.580;10.094;2022-08-21T00:04:18;17.60;78.70
7218;DHT22;3650;53.580;10.094;2022-08-21T00:06:46;17.50;79.10
7218;DHT22;3650;53.580;10.094;2022-08-21T00:09:13;17.60;80.00
7218;DHT22;3650;53.580;10.094;2022-08-21T00:11:40;17.60;80.00
7218;DHT22;3650;53.580;10.094;2022-08-21T00:14:13;17.60;80.00
7218;DHT22;3650;53.580;10.094;2022-08-21T00:16:40;17.50;79.90
7218;DHT22;3650;53.580;10.094;2022-08-21T00:19:07;17.50;81.60
7218;DHT22;3650;53.580;10.094;2022-08-21T00:21:34;17.50;81.50
7218;DHT22;3650;53.580;10.094;2022-08-21T00:24:04;17.50;80.90
7218;DHT22;3650;53.580;10.094;2022-08-21T00:26:31;17.40;80.40
7218;DHT22;3650;53.580;10.094;2022-08-21T00:28:58;17.40;81.70
7218;DHT22;3650;53.580;10.094;2022-08-21T00:31:25;17.30;82.80
7218;DHT22;3650;53.580;10.094;2022-08-21T00:33:51;17.30;82.90
7218;DHT22;3650;53.580;10.094;2022-08-21T00:36:18;17.30;83.30
7218;DHT22;3650;53.580;10.094;2022-08-21T00:38:45;17.40;82.50
7218;DHT22;3650;53.580;10.094;2022-08-21T00:41:13;17.40;82.50
7218;DHT22;3650;53.580;10.094;2022-08-21T00:43:40;17.30;82.10
7218;DHT22;3650;53.580;10.094;2022-08-21T00:46:07;17.40;82.20
7218;DHT22;3650;53.580;10.094;2022-08-21T00:48:34;17.30;81.40
7218;DHT22;3650;53.580;10.094;2022-08-21T00:51:05;17.30;81.20
7218;DHT22;3650;53.580;10.094;2022-08-21T00:53:33;17.20;82.50
7218;DHT22;3650;53.580;10.094;2022-08-21T00:56:01;17.30;83.50
7218;DHT22;3650;53.580;10.094;2022-08-21T00:58:31;17.30;83.10
7218;DHT22;3650;53.580;10.094;2022-08-21T01:01:03;17.30;83.10
7218;DHT22;3650;53.580;10.094;2022-08-21T01:03:31;17.30;83.50
7218;DHT22;3650;53.580;10.094;2022-08-21T01:05:57;17.30;83.70
7218;DHT22;3650;53.580;10.094;2022-08-21T01:08:25;17.30;84.10
7218;DHT22;3650;53.580;10.094;2022-08-21T01:10:53;17.30;84.30
7218;DHT22;3650;53.580;10.094;2022-08-21T01:13:21;17.30;83.90
7218;DHT22;3650;53.580;10.094;2022-08-21T01:15:54;17.20;84.50
7218;DHT22;3650;53.580;10.094;2022-08-21T01:18:22;17.10;85.80
7218;DHT22;3650;53.580;10.094;2022-08-21T01:21:04;17.00;88.30
7218;DHT22;3650;53.580;10.094;2022-08-21T01:23:32;17.00;90.00
7218;DHT22;3650;53.580;10.094;2022-08-21T01:25:59;17.00;90.10
7218;DHT22;3650;53.580;10.094;2022-08-21T01:28:26;17.00;89.80
7218;DHT22;3650;53.580;10.094;2022-08-21T01:30:56;17.00;89.10
7218;DHT22;3650;53.580;10.094;2022-08-21T01:33:24;17.00;87.80
7218;DHT22;3650;53.580;10.094;2022-08-21T01:35:51;17.00;88.60
7218;DHT22;3650;53.580;10.094;2022-08-21T01:38:19;17.00;88.50
7218;DHT22;3650;53.580;10.094;2022-08-21T01:40:46;17.00;88.50
7218;DHT22;3650;53.580;10.094;2022-08-21T01:43:13;17.00;88.30
7218;DHT22;3650;53.580;10.094;2022-08-21T01:45:40;17.00;87.70
7218;DHT22;3650;53.580;10.094;2022-08-21T01:48:06;17.00;88.00
7218;DHT22;3650;53.580;10.094;2022-08-21T01:50:33;17.00;88.20
7218;DHT22;3650;53.580;10.094;2022-08-21T01:53:00;17.00;87.60
7218;DHT22;3650;53.580;10.094;2022-08-21T01:55:28;17.00;87.00
7218;DHT22;3650;53.580;10.094;2022-08-21T01:57:56;17.10;87.30
7218;DHT22;3650;53.580;10.094;2022-08-21T02:00:23;17.00;86.40
7218;DHT22;3650;53.580;10.094;2022-08-21T02:02:50;17.00;86.90
7218;DHT22;3650;53.580;10.094;2022-08-21T02:05:17;17.00;87.40
7218;DHT22;3650;53.580;10.094;2022-08-21T02:07:47;17.00;88.50
7218;DHT22;3650;53.580;10.094;2022-08-21T02:10:17;16.90;87.30
7218;DHT22;3650;53.580;10.094;2022-08-21T02:12:46;16.90;87.10
7218;DHT22;3650;53.580;10.094;2022-08-21T02:15:13;16.90;87.20
7218;DHT22;3650;53.580;10.094;2022-08-21T02:17:42;16.90;87.30
7218;DHT22;3650;53.580;10.094;2022-08-21T02:20:15;16.90;87.50
7218;DHT22;3650;53.580;10.094;2022-08-21T02:22:43;17.00;87.40
7218;DHT22;3650;53.580;10.094;2022-08-21T02:25:11;17.00;87.00
7218;DHT22;3650;53.580;10.094;2022-08-21T02:27:39;17.00;87.10
7218;DHT22;3650;53.580;10.094;2022-08-21T02:30:11;17.00;86.90
7218;DHT22;3650;53.580;10.094;2022-08-21T02:32:38;17.00;86.60
7218;DHT22;3650;53.580;10.094;2022-08-21T02:35:05;17.00;86.70
7218;DHT22;3650;53.580;10.094;2022-08-21T02:37:32;17.00;86.80
7218;DHT22;3650;53.580;10.094;2022-08-21T02:39:59;16.90;84.80
7218;DHT22;3650;53.580;10.094;2022-08-21T02:42:26;16.90;86.80
7218;DHT22;3650;53.580;10.094;2022-08-21T02:44:53;16.80;87.00
7218;DHT22;3650;53.580;10.094;2022-08-21T02:47:21;16.80;87.70
7218;DHT22;3650;53.580;10.094;2022-08-21T02:49:48;16.80;87.80
7218;DHT22;3650;53.580;10.094;2022-08-21T02:52:15;16.70;88.20
7218;DHT22;3650;53.580;10.094;2022-08-21T02:54:41;16.80;88.40
7218;DHT22;3650;53.580;10.094;2022-08-21T02:57:08;16.70;88.70
7218;DHT22;3650;53.580;10.094;2022-08-21T02:59:35;16.70;89.50
7218;DHT22;3650;53.580;10.094;2022-08-21T03:02:02;16.70;90.00
7218;DHT22;3650;53.580;10.094;2022-08-21T03:04:31;16.70;88.50
7218;DHT22;3650;53.580;10.094;2022-08-21T03:06:58;16.60;89.50
7218;DHT22;3650;53.580;10.094;2022-08-21T03:09:25;16.60;90.30
7218;DHT22;3650;53.580;10.094;2022-08-21T03:11:52;16.60;90.40
7218;DHT22;3650;53.580;10.094;2022-08-21T03:14:19;16.50;90.60
7218;DHT22;3650;53.580;10.094;2022-08-21T03:16:46;16.50;91.00
7218;DHT22;3650;53.580;10.094;2022-08-21T03:19:12;16.50;90.90
7218;DHT22;3650;53.580;10.094;2022-08-21T03:21:41;16.50;90.90
7218;DHT22;3650;53.580;10.094;2022-08-21T03:24:07;16.50;90.80
7218;DHT22;3650;53.580;10.094;2022-08-21T03:26:34;16.50;90.80
7218;DHT22;3650;53.580;10.094;2022-08-21T03:29:02;16.50;90.90
7218;DHT22;3650;53.580;10.094;2022-08-21T03:31:28;16.50;90.80
7218;DHT22;3650;53.580;10.094;2022-08-21T03:33:57;16.50;90.90
7218;DHT22;3650;53.580;10.094;2022-08-21T03:36:24;16.50;91.20
7218;DHT22;3650;53.580;10.094;2022-08-21T03:38:52;16.50;90.80
7218;DHT22;3650;53.580;10.094;2022-08-21T03:41:19;16.50;90.80
7218;DHT22;3650;53.580;10.094;2022-08-21T03:43:46;16.60;90.60
7218;DHT22;3650;53.580;10.094;2022-08-21T03:46:13;16.60;90.50
7218;DHT22;3650;53.580;10.094;2022-08-21T03:48:40;16.60;90.50
7218;DHT22;3650;53.580;10.094;2022-08-21T03:51:07;16.60;90.50
7218;DHT22;3650;53.580;10.094;2022-08-21T03:53:34;16.60;90.50
7218;DHT22;3650;53.580;10.094;2022-08-21T03:56:04;16.60;90.40
7218;DHT22;3650;53.580;10.094;2022-08-21T03:58:31;16.70;90.30
7218;DHT22;3650;53.580;10.094;2022-08-21T04:01:00;16.60;90.00
7218;DHT22;3650;53.580;10.094;2022-08-21T04:03:28;16.60;90.00
7218;DHT22;3650;53.580;10.094;2022-08-21T04:05:54;16.60;90.10
7218;DHT22;3650;53.580;10.094;2022-08-21T04:08:21;16.60;90.10
7218;DHT22;3650;53.580;10.094;2022-08-21T04:10:50;16.70;90.20
7218;DHT22;3650;53.580;10.094;2022-08-21T04:13:19;16.70;90.00
7218;DHT22;3650;53.580;10.094;2022-08-21T04:15:46;16.70;90.00
7218;DHT22;3650;53.580;10.094;2022-08-21T04:18:13;16.60;90.00
7218;DHT22;3650;53.580;10.094;2022-08-21T04:20:41;16.70;90.00
7218;DHT22;3650;53.580;10.094;2022-08-21T04:23:09;16.60;90.00
7218;DHT22;3650;53.580;10.094;2022-08-21T04:25:35;16.70;90.00
7218;DHT22;3650;53.580;10.094;2022-08-21T04:28:03;16.70;89.10
7218;DHT22;3650;53.580;10.094;2022-08-21T04:30:31;16.60;89.00
7218;DHT22;3650;53.580;10.094;2022-08-21T04:32:58;16.60;88.80
7218;DHT22;3650;53.580;10.094;2022-08-21T04:35:27;16.60;89.30
7218;DHT22;3650;53.580;10.094;2022-08-21T04:37:54;16.60;88.50
7218;DHT22;3650;53.580;10.094;2022-08-21T04:40:23;16.60;89.50
7218;DHT22;3650;53.580;10.094;2022-08-21T04:42:52;16.60;90.00
7218;DHT22;3650;53.580;10.094;2022-08-21T04:45:22;16.60;90.00
7218;DHT22;3650;53.580;10.094;2022-08-21T04:47:52;16.60;90.00
7218;DHT22;3650;53.580;10.094;2022-08-21T04:50:20;16.60;90.00
7218;DHT22;3650;53.580;10.094;2022-08-21T04:52:48;16.60;90.00
7218;DHT22;3650;53.580;10.094;2022-08-21T04:55:16;16.60;90.20
7218;DHT22;3650;53.580;10.094;2022-08-21T04:57:44;16.60;90.30
7218;DHT22;3650;53.580;10.094;2022-08-21T05:00:12;16.70;90.40
7218;DHT22;3650;53.580;10.094;2022-08-21T05:02:40;16.70;90.40
7218;DHT22;3650;53.580;10.094;2022-08-21T05:05:09;16.60;90.00
7218;DHT22;3650;53.580;10.094;2022-08-21T05:07:35;16.60;90.30
7218;DHT22;3650;53.580;10.094;2022-08-21T05:10:03;16.60;90.60
7218;DHT22;3650;53.580;10.094;2022-08-21T05:12:31;16.60;90.40
7218;DHT22;3650;53.580;10.094;2022-08-21T05:14:58;16.60;91.00
7218;DHT22;3650;53.580;10.094;2022-08-21T05:17:25;16.60;91.30
7218;DHT22;3650;53.580;10.094;2022-08-21T05:19:52;16.70;91.40
7218;DHT22;3650;53.580;10.094;2022-08-21T05:22:20;16.70;91.60
7218;DHT22;3650;53.580;10.094;2022-08-21T05:24:47;16.70;91.60
7218;DHT22;3650;53.580;10.094;2022-08-21T05:27:14;16.70;91.10
7218;DHT22;3650;53.580;10.094;2022-08-21T05:29:41;16.80;90.80
7218;DHT22;3650;53.580;10.094;2022-08-21T05:32:09;16.80;90.50
7218;DHT22;3650;53.580;10.094;2022-08-21T05:34:36;16.90;90.50
7218;DHT22;3650;53.580;10.094;2022-08-21T05:37:03;16.90;90.50
7218;DHT22;3650;53.580;10.094;2022-08-21T05:39:32;17.00;90.30
7218;DHT22;3650;53.580;10.094;2022-08-21T05:41:59;17.00;90.10
7218;DHT22;3650;53.580;10.094;2022-08-21T05:44:25;17.10;90.10
7218;DHT22;3650;53.580;10.094;2022-08-21T05:46:52;17.20;90.00
7218;DHT22;3650;53.580;10.094;2022-08-21T05:49:19;17.20;89.60
7218;DHT22;3650;53.580;10.094;2022-08-21T05:51:46;17.20;88.90
7218;DHT22;3650;53.580;10.094;2022-08-21T05:54:12;17.30;89.20
7218;DHT22;3650;53.580;10.094;2022-08-21T05:56:40;17.40;89.00
7218;DHT22;3650;53.580;10.094;2022-08-21T05:59:10;17.40;88.50
7218;DHT22;3650;53.580;10.094;2022-08-21T06:01:39;17.40;88.30
7218;DHT22;3650;53.580;10.094;2022-08-21T06:04:06;17.50;87.80
7218;DHT22;3650;53.580;10.094;2022-08-21T06:06:33;17.50;87.20
7218;DHT22;3650;53.580;10.094;2022-08-21T06:09:00;17.60;87.00
7218;DHT22;3650;53.580;10.094;2022-08-21T06:11:28;17.60;86.50
7218;DHT22;3650;53.580;10.094;2022-08-21T06:13:57;17.60;87.10
7218;DHT22;3650;53.580;10.094;2022-08-21T06:16:27;17.60;85.60
7218;DHT22;3650;53.580;10.094;2022-08-21T06:18:54;17.70;85.20
7218;DHT22;3650;53.580;10.094;2022-08-21T06:21:20;17.70;85.10
7218;DHT22;3650;53.580;10.094;2022-08-21T06:23:47;17.70;85.50
7218;DHT22;3650;53.580;10.094;2022-08-21T06:26:14;17.70;86.00
7218;DHT22;3650;53.580;10.094;2022-08-21T06:28:42;17.80;86.30
7218;DHT22;3650;53.580;10.094;2022-08-21T06:31:16;17.80;86.00
7218;DHT22;3650;53.580;10.094;2022-08-21T06:33:43;17.80;86.20
7218;DHT22;3650;53.580;10.094;2022-08-21T06:36:10;17.90;85.60
7218;DHT22;3650;53.580;10.094;2022-08-21T06:38:37;17.90;85.10
7218;DHT22;3650;53.580;10.094;2022-08-21T06:41:05;17.90;85.40
7218;DHT22;3650;53.580;10.094;2022-08-21T06:43:32;18.00;84.70
7218;DHT22;3650;53.580;10.094;2022-08-21T06:45:59;18.00;84.00
7218;DHT22;3650;53.580;10.094;2022-08-21T06:48:27;18.10;83.50
7218;DHT22;3650;53.580;10.094;2022-08-21T06:50:55;18.10;83.40
7218;DHT22;3650;53.580;10.094;2022-08-21T06:53:22;18.10;82.80
7218;DHT22;3650;53.580;10.094;2022-08-21T06:55:48;18.20;82.00
7218;DHT22;3650;53.580;10.094;2022-08-21T06:58:16;18.20;81.50
7218;DHT22;3650;53.580;10.094;2022-08-21T07:00:44;18.20;80.50
7218;DHT22;3650;53.580;10.094;2022-08-21T07:03:17;18.20;79.30
7218;DHT22;3650;53.580;10.094;2022-08-21T07:05:46;18.20;78.60
7218;DHT22;3650;53.580;10.094;2022-08-21T07:08:12;18.30;78.50
7218;DHT22;3650;53.580;10.094;2022-08-21T07:10:39;18.30;78.80
7218;DHT22;3650;53.580;10.094;2022-08-21T07:13:06;18.30;78.00
7218;DHT22;3650;53.580;10.094;2022-08-21T07:15:33;18.40;77.10
7218;DHT22;3650;53.580;10.094;2022-08-21T07:18:00;18.40;75.60
7218;DHT22;3650;53.580;10.094;2022-08-21T07:20:28;18.40;74.80
7218;DHT22;3650;53.580;10.094;2022-08-21T07:22:59;18.40;73.20
7218;DHT22;3650;53.580;10.094;2022-08-21T07:25:27;18.50;71.70
7218;DHT22;3650;53.580;10.094;2022-08-21T07:27:54;18.60;71.90
7218;DHT22;3650;53.580;10.094;2022-08-21T07:30:21;18.60;70.70
7218;DHT22;3650;53.580;10.094;2022-08-21T07:32:48;18.60;70.40
7218;DHT22;3650;53.580;10.094;2022-08-21T07:35:15;18.70;70.50
7218;DHT22;3650;53.580;10.094;2022-08-21T07:37:42;18.70;70.00
7218;DHT22;3650;53.580;10.094;2022-08-21T07:40:10;18.70;69.50
7218;DHT22;3650;53.580;10.094;2022-08-21T07:42:40;18.80;68.80
7218;DHT22;3650;53.580;10.094;2022-08-21T07:45:08;18.80;69.60
7218;DHT22;3650;53.580;10.094;2022-08-21T07:47:35;18.90;69.80
7218;DHT22;3650;53.580;10.094;2022-08-21T07:50:03;18.90;69.70
7218;DHT22;3650;53.580;10.094;2022-08-21T07:52:30;18.90;69.60
7218;DHT22;3650;53.580;10.094;2022-08-21T07:54:58;18.90;69.70
7218;DHT22;3650;53.580;10.094;2022-08-21T07:57:26;18.90;69.70
7218;DHT22;3650;53.580;10.094;2022-08-21T07:59:53;18.90;67.70
7218;DHT22;3650;53.580;10.094;2022-08-21T08:02:24;19.00;67.00
7218;DHT22;3650;53.580;10.094;2022-08-21T08:04:51;19.00;67.00
7218;DHT22;3650;53.580;10.094;2022-08-21T08:07:18;19.00;67.00
7218;DHT22;3650;53.580;10.094;2022-08-21T08:09:45;19.10;66.30
7218;DHT22;3650;53.580;10.094;2022-08-21T08:12:12;19.10;65.20
7218;DHT22;3650;53.580;10.094;2022-08-21T08:14:40;19.20;64.10
7218;DHT22;3650;53.580;10.094;2022-08-21T08:17:07;19.20;64.60
7218;DHT22;3650;53.580;10.094;2022-08-21T08:19:33;19.30;64.20
7218;DHT22;3650;53.580;10.094;2022-08-21T08:22:00;19.40;63.90
7218;DHT22;3650;53.580;10.094;2022-08-21T08:24:27;19.40;61.80
7218;DHT22;3650;53.580;10.094;2022-08-21T08:26:54;19.50;61.40
7218;DHT22;3650;53.580;10.094;2022-08-21T08:29:22;19.60;61.20
7218;DHT22;3650;53.580;10.094;2022-08-21T08:31:50;19.60;61.10
7218;DHT22;3650;53.580;10.094;2022-08-21T08:34:17;19.70;61.30
7218;DHT22;3650;53.580;10.094;2022-08-21T08:36:45;19.80;61.10
7218;DHT22;3650;53.580;10.094;2022-08-21T08:39:12;19.80;61.00
7218;DHT22;3650;53.580;10.094;2022-08-21T08:41:40;19.80;60.60
7218;DHT22;3650;53.580;10.094;2022-08-21T08:44:07;19.90;59.50
7218;DHT22;3650;53.580;10.094;2022-08-21T08:46:40;19.90;59.80
7218;DHT22;3650;53.580;10.094;2022-08-21T08:49:13;20.00;60.40
7218;DHT22;3650;53.580;10.094;2022-08-21T08:51:48;20.00;60.30
7218;DHT22;3650;53.580;10.094;2022-08-21T08:54:21;20.10;60.20
7218;DHT22;3650;53.580;10.094;2022-08-21T08:56:51;20.10;60.00
7218;DHT22;3650;53.580;10.094;2022-08-21T08:59:23;20.20;59.70
7218;DHT22;3650;53.580;10.094;2022-08-21T09:01:52;20.30;58.80
7218;DHT22;3650;53.580;10.094;2022-08-21T09:04:23;20.30;59.00
7218;DHT22;3650;53.580;10.094;2022-08-21T09:06:58;20.40;59.70
7218;DHT22;3650;53.580;10.094;2022-08-21T09:09:38;20.40;59.10
7218;DHT22;3650;53.580;10.094;2022-08-21T09:12:14;20.50;59.20
7218;DHT22;3650;53.580;10.094;2022-08-21T09:14:58;20.60;59.10
7218;DHT22;3650;53.580;10.094;2022-08-21T09:17:44;20.60;59.10
7218;DHT22;3650;53.580;10.094;2022-08-21T09:20:20;20.70;58.40
7218;DHT22;3650;53.580;10.094;2022-08-21T09:22:58;20.70;57.50
7218;DHT22;3650;53.580;10.094;2022-08-21T09:25:32;20.80;56.80
7218;DHT22;3650;53.580;10.094;2022-08-21T09:27:59;20.80;56.60
7218;DHT22;3650;53.580;10.094;2022-08-21T09:30:31;21.00;55.40
7218;DHT22;3650;53.580;10.094;2022-08-21T09:32:58;21.00;54.30
7218;DHT22;3650;53.580;10.094;2022-08-21T09:35:26;21.00;54.20
7218;DHT22;3650;53.580;10.094;2022-08-21T09:37:55;21.10;54.40
7218;DHT22;3650;53.580;10.094;2022-08-21T09:40:31;21.10;53.80
7218;DHT22;3650;53.580;10.094;2022-08-21T09:43:01;21.20;53.90
7218;DHT22;3650;53.580;10.094;2022-08-21T09:45:32;21.20;53.10
7218;DHT22;3650;53.580;10.094;2022-08-21T09:48:08;21.20;52.00
7218;DHT22;3650;53.580;10.094;2022-08-21T09:50:38;21.20;51.80
7218;DHT22;3650;53.580;10.094;2022-08-21T09:53:13;21.30;52.10
7218;DHT22;3650;53.580;10.094;2022-08-21T09:55:49;21.30;51.20
7218;DHT22;3650;53.580;10.094;2022-08-21T09:58:37;21.40;51.00
7218;DHT22;3650;53.580;10.094;2022-08-21T10:01:05;21.40;50.20
7218;DHT22;3650;53.580;10.094;2022-08-21T10:03:32;21.50;48.40
7218;DHT22;3650;53.580;10.094;2022-08-21T10:06:04;21.50;48.00
7218;DHT22;3650;53.580;10.094;2022-08-21T10:08:35;21.60;48.20
7218;DHT22;3650;53.580;10.094;2022-08-21T10:11:05;21.60;49.30
7218;DHT22;3650;53.580;10.094;2022-08-21T10:13:41;21.70;47.90
7218;DHT22;3650;53.580;10.094;2022-08-21T10:16:22;21.70;47.10
7218;DHT22;3650;53.580;10.094;2022-08-21T10:19:01;21.70;47.60
7218;DHT22;3650;53.580;10.094;2022-08-21T10:21:34;21.70;48.90
7218;DHT22;3650;53.580;10.094;2022-08-21T10:24:09;21.80;47.20
7218;DHT22;3650;53.580;10.094;2022-08-21T10:26:47;21.90;47.30
7218;DHT22;3650;53.580;10.094;2022-08-21T10:29:31;21.90;48.50
7218;DHT22;3650;53.580;10.094;2022-08-21T10:32:05;21.90;47.30
7218;DHT22;3650;53.580;10.094;2022-08-21T10:34:41;22.00;47.40
7218;DHT22;3650;53.580;10.094;2022-08-21T10:37:21;22.00;47.40
7218;DHT22;3650;53.580;10.094;2022-08-21T10:40:02;22.00;48.00
7218;DHT22;3650;53.580;10.094;2022-08-21T10:42:37;22.10;47.50
7218;DHT22;3650;53.580;10.094;2022-08-21T10:45:17;22.10;47.50
7218;DHT22;3650;53.580;10.094;2022-08-21T10:47:49;22.10;47.50
7218;DHT22;3650;53.580;10.094;2022-08-21T10:50:25;22.20;47.60
7218;DHT22;3650;53.580;10.094;2022-08-21T10:53:11;22.20;47.60
7218;DHT22;3650;53.580;10.094;2022-08-21T10:55:44;22.30;49.40
7218;DHT22;3650;53.580;10.094;2022-08-21T10:58:19;22.40;47.80
7218;DHT22;3650;53.580;10.094;2022-08-21T11:00:49;22.40;49.10
7218;DHT22;3650;53.580;10.094;2022-08-21T11:03:23;22.50;48.00
7218;DHT22;3650;53.580;10.094;2022-08-21T11:05:53;22.60;45.80
7218;DHT22;3650;53.580;10.094;2022-08-21T11:08:27;22.60;45.40
7218;DHT22;3650;53.580;10.094;2022-08-21T11:11:00;22.70;45.10
7218;DHT22;3650;53.580;10.094;2022-08-21T11:13:35;22.80;42.80
7218;DHT22;3650;53.580;10.094;2022-08-21T11:16:09;22.80;42.90
7218;DHT22;3650;53.580;10.094;2022-08-21T11:18:39;22.90;39.70
7218;DHT22;3650;53.580;10.094;2022-08-21T11:21:20;22.90;38.80
7218;DHT22;3650;53.580;10.094;2022-08-21T11:23:59;22.90;39.30
7218;DHT22;3650;53.580;10.094;2022-08-21T11:26:35;22.80;40.70
7218;DHT22;3650;53.580;10.094;2022-08-21T11:29:11;22.90;38.60
7218;DHT22;3650;53.580;10.094;2022-08-21T11:31:46;22.90;38.70
7218;DHT22;3650;53.580;10.094;2022-08-21T11:34:24;23.00;39.70
7218;DHT22;3650;53.580;10.094;2022-08-21T11:37:01;23.00;39.50
7218;DHT22;3650;53.580;10.094;2022-08-21T11:39:44;22.90;38.70
7218;DHT22;3650;53.580;10.094;2022-08-21T11:42:19;22.90;38.80
7218;DHT22;3650;53.580;10.094;2022-08-21T11:44:52;22.90;38.50
7218;DHT22;3650;53.580;10.094;2022-08-21T11:47:30;22.90;39.00
7218;DHT22;3650;53.580;10.094;2022-08-21T11:50:09;23.00;37.00
7218;DHT22;3650;53.580;10.094;2022-08-21T11:52:39;23.00;34.40
7218;DHT22;3650;53.580;10.094;2022-08-21T11:55:15;23.00;34.10
7218;DHT22;3650;53.580;10.094;2022-08-21T11:57:55;23.00;35.30
7218;DHT22;3650;53.580;10.094;2022-08-21T12:00:25;23.10;35.80
7218;DHT22;3650;53.580;10.094;2022-08-21T12:02:56;23.20;35.90
7218;DHT22;3650;53.580;10.094;2022-08-21T12:05:27;23.20;35.90
7218;DHT22;3650;53.580;10.094;2022-08-21T12:08:05;23.30;36.00
7218;DHT22;3650;53.580;10.094;2022-08-21T12:10:38;23.30;34.50
7218;DHT22;3650;53.580;10.094;2022-08-21T12:13:08;23.40;35.10
7218;DHT22;3650;53.580;10.094;2022-08-21T12:15:37;23.40;35.50
7218;DHT22;3650;53.580;10.094;2022-08-21T12:18:06;23.40;34.70
7218;DHT22;3650;53.580;10.094;2022-08-21T12:20:40;23.50;34.70
7218;DHT22;3650;53.580;10.094;2022-08-21T12:23:25;23.50;32.90
7218;DHT22;3650;53.580;10.094;2022-08-21T12:26:03;23.60;32.40
7218;DHT22;3650;53.580;10.094;2022-08-21T12:28:36;23.70;32.70
7218;DHT22;3650;53.580;10.094;2022-08-21T12:31:04;23.70;33.50
7218;DHT22;3650;53.580;10.094;2022-08-21T12:33:32;23.80;32.30
7218;DHT22;3650;53.580;10.094;2022-08-21T12:36:04;23.80;31.80
7218;DHT22;3650;53.580;10.094;2022-08-21T12:38:42;23.90;32.70
7218;DHT22;3650;53.580;10.094;2022-08-21T12:41:24;23.90;31.50
7218;DHT22;3650;53.580;10.094;2022-08-21T12:43:57;24.00;32.20
7218;DHT22;3650;53.580;10.094;2022-08-21T12:46:29;24.00;31.60
7218;DHT22;3650;53.580;10.094;2022-08-21T12:49:00;24.00;31.40
7218;DHT22;3650;53.580;10.094;2022-08-21T12:51:32;23.90;30.80
7218;DHT22;3650;53.580;10.094;2022-08-21T12:54:01;23.90;31.00
7218;DHT22;3650;53.580;10.094;2022-08-21T12:56:33;23.90;31.40
7218;DHT22;3650;53.580;10.094;2022-08-21T12:59:03;24.00;31.50
7218;DHT22;3650;53.580;10.094;2022-08-21T13:01:32;24.00;31.40
7218;DHT22;3650;53.580;10.094;2022-08-21T13:04:03;24.10;31.90
7218;DHT22;3650;53.580;10.094;2022-08-21T13:06:36;24.20;31.60
7218;DHT22;3650;53.580;10.094;2022-08-21T13:09:06;24.20;32.20
7218;DHT22;3650;53.580;10.094;2022-08-21T13:11:35;24.30;30.10
7218;DHT22;3650;53.580;10.094;2022-08-21T13:14:03;24.50;30.30
7218;DHT22;3650;53.580;10.094;2022-08-21T13:16:31;24.50;30.10
7218;DHT22;3650;53.580;10.094;2022-08-21T13:19:00;24.60;30.10
7218;DHT22;3650;53.580;10.094;2022-08-21T13:21:30;24.60;29.20
7218;DHT22;3650;53.580;10.094;2022-08-21T13:24:12;24.50;29.10
7218;DHT22;3650;53.580;10.094;2022-08-21T13:26:42;24.60;29.00
7218;DHT22;3650;53.580;10.094;2022-08-21T13:29:13;24.70;29.30
7218;DHT22;3650;53.580;10.094;2022-08-21T13:31:46;24.70;29.80
7218;DHT22;3650;53.580;10.094;2022-08-21T13:34:14;24.70;29.40
7218;DHT22;3650;53.580;10.094;2022-08-21T13:36:42;24.70;30.30
7218;DHT22;3650;53.580;10.094;2022-08-21T13:39:14;24.80;28.60
7218;DHT22;3650;53.580;10.094;2022-08-21T13:41:48;24.80;27.70
7218;DHT22;3650;53.580;10.094;2022-08-21T13:44:17;24.70;28.30
7218;DHT22;3650;53.580;10.094;2022-08-21T13:46:46;24.70;28.10
7218;DHT22;3650;53.580;10.094;2022-08-21T13:49:15;24.80;28.00
7218;DHT22;3650;53.580;10.094;2022-08-21T13:51:43;24.80;27.50
7218;DHT22;3650;53.580;10.094;2022-08-21T13:54:15;24.70;27.50
7218;DHT22;3650;53.580;10.094;2022-08-21T13:56:46;24.70;28.30
7218;DHT22;3650;53.580;10.094;2022-08-21T13:59:23;24.70;28.40
7218;DHT22;3650;53.580;10.094;2022-08-21T14:01:53;24.60;27.60
7218;DHT22;3650;53.580;10.094;2022-08-21T14:04:32;24.60;27.80
7218;DHT22;3650;53.580;10.094;2022-08-21T14:07:00;24.60;28.10
7218;DHT22;3650;53.580;10.094;2022-08-21T14:09:31;24.60;28.00
7218;DHT22;3650;53.580;10.094;2022-08-21T14:12:10;24.50;27.70
7218;DHT22;3650;53.580;10.094;2022-08-21T14:14:39;24.50;28.00
7218;DHT22;3650;53.580;10.094;2022-08-21T14:17:10;24.50;29.10
7218;DHT22;3650;53.580;10.094;2022-08-21T14:19:41;24.40;28.50
7218;DHT22;3650;53.580;10.094;2022-08-21T14:22:39;24.30;30.20
7218;DHT22;3650;53.580;10.094;2022-08-21T14:25:10;24.40;28.80
7218;DHT22;3650;53.580;10.094;2022-08-21T14:27:51;24.20;28.20
7218;DHT22;3650;53.580;10.094;2022-08-21T14:30:21;24.20;28.70
7218;DHT22;3650;53.580;10.094;2022-08-21T14:32:48;24.20;29.00
7218;DHT22;3650;53.580;10.094;2022-08-21T14:35:15;24.20;28.50
7218;DHT22;3650;53.580;10.094;2022-08-21T14:37:45;24.10;29.80
7218;DHT22;3650;53.580;10.094;2022-08-21T14:40:12;24.20;28.50
7218;DHT22;3650;53.580;10.094;2022-08-21T14:42:41;24.10;28.90
7218;DHT22;3650;53.580;10.094;2022-08-21T14:45:13;24.10;29.40
7218;DHT22;3650;53.580;10.094;2022-08-21T14:47:41;24.10;29.10
7218;DHT22;3650;53.580;10.094;2022-08-21T14:50:09;24.10;29.50
7218;DHT22;3650;53.580;10.094;2022-08-21T14:52:36;24.10;29.40
7218;DHT22;3650;53.580;10.094;2022-08-21T14:55:04;24.00;29.40
7218;DHT22;3650;53.580;10.094;2022-08-21T14:57:31;24.00;29.60
7218;DHT22;3650;53.580;10.094;2022-08-21T15:00:01;24.00;30.10
7218;DHT22;3650;53.580;10.094;2022-08-21T15:02:27;24.00;30.10
7218;DHT22;3650;53.580;10.094;2022-08-21T15:04:54;23.90;29.90
7218;DHT22;3650;53.580;10.094;2022-08-21T15:07:21;23.90;29.70
7218;DHT22;3650;53.580;10.094;2022-08-21T15:09:48;23.90;30.10
7218;DHT22;3650;53.580;10.094;2022-08-21T15:12:14;23.80;29.80
7218;DHT22;3650;53.580;10.094;2022-08-21T15:14:42;23.80;30.40
7218;DHT22;3650;53.580;10.094;2022-08-21T15:17:11;23.80;29.30
7218;DHT22;3650;53.580;10.094;2022-08-21T15:19:38;23.80;29.60
7218;DHT22;3650;53.580;10.094;2022-08-21T15:22:05;23.80;29.70
7218;DHT22;3650;53.580;10.094;2022-08-21T15:24:32;23.80;30.10
7218;DHT22;3650;53.580;10.094;2022-08-21T15:27:01;23.70;29.70
7218;DHT22;3650;53.580;10.094;2022-08-21T15:29:29;23.70;30.00
7218;DHT22;3650;53.580;10.094;2022-08-21T15:31:58;23.80;30.80
7218;DHT22;3650;53.580;10.094;2022-08-21T15:34:28;23.80;31.30
7218;DHT22;3650;53.580;10.094;2022-08-21T15:36:56;23.80;30.60
7218;DHT22;3650;53.580;10.094;2022-08-21T15:39:23;23.80;30.20
7218;DHT22;3650;53.580;10.094;2022-08-21T15:41:50;23.80;30.00
7218;DHT22;3650;53.580;10.094;2022-08-21T15:44:17;23.80;30.80
7218;DHT22;3650;53.580;10.094;2022-08-21T15:46:44;23.80;32.00
7218;DHT22;3650;53.580;10.094;2022-08-21T15:49:12;23.80;32.10
7218;DHT22;3650;53.580;10.094;2022-08-21T15:51:40;23.80;32.50
7218;DHT22;3650;53.580;10.094;2022-08-21T15:54:07;23.80;31.40
7218;DHT22;3650;53.580;10.094;2022-08-21T15:56:37;23.80;31.70
7218;DHT22;3650;53.580;10.094;2022-08-21T15:59:06;23.80;32.10
7218;DHT22;3650;53.580;10.094;2022-08-21T16:01:35;23.80;30.50